Terminal Aerodrome Forecast
Issued by NWS

Home | Current Version | Previous Version | Text Only | Print | Product List | Glossary On
Versions: 1 2 3 4 5 6 7 8 9 10 11 12 13 14 15 16
000
FTUS43 KMQT 201730
TAFSAW
TAF
KSAW 201730Z 2018/2118 19010KT P6SM BKN100
     FM210000 20012G19KT P6SM BKN120 WS015/22040KT
     FM210700 23009G17KT P6SM BKN120 WS015/27040KT
     FM210900 25012G20KT P6SM BKN100
     FM211200 27014G24KT P6SM VCSH BKN035=

USA.gov is the U.S. government's official web portal to all federal, state and local government web resources and services.